sensor_id;sensor_type;location;lat;lon;timestamp;temperature;humidity
8220;DHT22;4151;51.110;7.020;2022-12-26T00:00:57;11.40;99.90
8220;DHT22;4151;51.110;7.020;2022-12-26T00:03:22;11.50;99.90
8220;DHT22;4151;51.110;7.020;2022-12-26T00:05:48;11.40;99.90
8220;DHT22;4151;51.110;7.020;2022-12-26T00:08:13;11.40;99.90
8220;DHT22;4151;51.110;7.020;2022-12-26T00:10:39;11.40;99.90
8220;DHT22;4151;51.110;7.020;2022-12-26T00:13:05;11.50;99.90
8220;DHT22;4151;51.110;7.020;2022-12-26T00:15:30;11.50;99.90
8220;DHT22;4151;51.110;7.020;2022-12-26T00:17:56;11.60;99.90
8220;DHT22;4151;51.110;7.020;2022-12-26T00:20:21;11.60;99.90
8220;DHT22;4151;51.110;7.020;2022-12-26T00:22:47;11.70;99.90
8220;DHT22;4151;51.110;7.020;2022-12-26T00:25:12;11.70;99.90
8220;DHT22;4151;51.110;7.020;2022-12-26T00:27:38;11.70;99.90
8220;DHT22;4151;51.110;7.020;2022-12-26T00:30:04;11.80;99.90
8220;DHT22;4151;51.110;7.020;2022-12-26T00:32:29;11.70;99.90
8220;DHT22;4151;51.110;7.020;2022-12-26T00:34:55;11.80;99.90
8220;DHT22;4151;51.110;7.020;2022-12-26T00:37:20;11.80;99.90
8220;DHT22;4151;51.110;7.020;2022-12-26T00:39:46;11.80;99.90
8220;DHT22;4151;51.110;7.020;2022-12-26T00:42:12;11.80;99.90
8220;DHT22;4151;51.110;7.020;2022-12-26T00:44:37;11.80;99.90
8220;DHT22;4151;51.110;7.020;2022-12-26T00:47:03;11.70;99.90
8220;DHT22;4151;51.110;7.020;2022-12-26T00:49:28;11.70;99.90
8220;DHT22;4151;51.110;7.020;2022-12-26T00:51:54;11.70;99.90
8220;DHT22;4151;51.110;7.020;2022-12-26T00:54:19;11.70;99.90
8220;DHT22;4151;51.110;7.020;2022-12-26T00:56:45;11.70;99.90
8220;DHT22;4151;51.110;7.020;2022-12-26T00:59:11;11.80;99.90
8220;DHT22;4151;51.110;7.020;2022-12-26T01:01:36;11.80;99.90
8220;DHT22;4151;51.110;7.020;2022-12-26T01:04:02;11.90;99.90
8220;DHT22;4151;51.110;7.020;2022-12-26T01:06:29;11.90;99.90
8220;DHT22;4151;51.110;7.020;2022-12-26T01:08:54;12.00;99.90
8220;DHT22;4151;51.110;7.020;2022-12-26T01:11:20;12.00;99.90
8220;DHT22;4151;51.110;7.020;2022-12-26T01:14:07;12.00;99.90
8220;DHT22;4151;51.110;7.020;2022-12-26T01:16:33;12.00;99.90
8220;DHT22;4151;51.110;7.020;2022-12-26T01:18:58;12.00;99.90
8220;DHT22;4151;51.110;7.020;2022-12-26T01:21:24;12.00;99.90
8220;DHT22;4151;51.110;7.020;2022-12-26T01:23:49;12.00;99.90
8220;DHT22;4151;51.110;7.020;2022-12-26T01:26:15;12.10;99.90
8220;DHT22;4151;51.110;7.020;2022-12-26T01:28:40;12.10;99.90
8220;DHT22;4151;51.110;7.020;2022-12-26T01:31:06;12.20;99.90
8220;DHT22;4151;51.110;7.020;2022-12-26T01:33:32;12.20;99.90
8220;DHT22;4151;51.110;7.020;2022-12-26T01:35:57;12.20;99.90
8220;DHT22;4151;51.110;7.020;2022-12-26T01:38:23;12.20;99.90
8220;DHT22;4151;51.110;7.020;2022-12-26T01:40:49;12.20;99.90
8220;DHT22;4151;51.110;7.020;2022-12-26T01:44:01;12.20;99.90
8220;DHT22;4151;51.110;7.020;2022-12-26T01:46:43;12.20;99.90
8220;DHT22;4151;51.110;7.020;2022-12-26T01:49:31;12.20;99.90
8220;DHT22;4151;51.110;7.020;2022-12-26T01:52:03;12.20;99.90
8220;DHT22;4151;51.110;7.020;2022-12-26T01:54:32;12.20;99.90
8220;DHT22;4151;51.110;7.020;2022-12-26T01:57:01;12.10;99.90
8220;DHT22;4151;51.110;7.020;2022-12-26T01:59:30;12.20;99.90
8220;DHT22;4151;51.110;7.020;2022-12-26T02:01:57;12.20;99.90
8220;DHT22;4151;51.110;7.020;2022-12-26T02:04:34;12.20;99.90
8220;DHT22;4151;51.110;7.020;2022-12-26T02:07:18;12.10;99.90
8220;DHT22;4151;51.110;7.020;2022-12-26T02:09:44;12.10;99.90
8220;DHT22;4151;51.110;7.020;2022-12-26T02:12:13;12.20;99.90
8220;DHT22;4151;51.110;7.020;2022-12-26T02:14:40;12.20;99.90
8220;DHT22;4151;51.110;7.020;2022-12-26T02:17:06;12.10;99.90
8220;DHT22;4151;51.110;7.020;2022-12-26T02:19:41;12.10;99.90
8220;DHT22;4151;51.110;7.020;2022-12-26T02:25:01;12.10;99.90
8220;DHT22;4151;51.110;7.020;2022-12-26T02:33:30;11.80;99.90
8220;DHT22;4151;51.110;7.020;2022-12-26T02:36:22;11.80;99.90
8220;DHT22;4151;51.110;7.020;2022-12-26T02:42:05;11.70;99.90
8220;DHT22;4151;51.110;7.020;2022-12-26T02:44:58;11.70;99.90
8220;DHT22;4151;51.110;7.020;2022-12-26T02:48:02;11.70;99.90
8220;DHT22;4151;51.110;7.020;2022-12-26T02:54:00;11.70;99.90
8220;DHT22;4151;51.110;7.020;2022-12-26T02:56:52;11.80;99.90
8220;DHT22;4151;51.110;7.020;2022-12-26T03:02:36;11.60;99.90
8220;DHT22;4151;51.110;7.020;2022-12-26T03:05:43;11.40;99.90
8220;DHT22;4151;51.110;7.020;2022-12-26T03:08:39;11.30;99.90
8220;DHT22;4151;51.110;7.020;2022-12-26T03:11:28;11.20;99.90
8220;DHT22;4151;51.110;7.020;2022-12-26T03:14:17;11.10;99.90
8220;DHT22;4151;51.110;7.020;2022-12-26T03:16:46;11.10;99.90
8220;DHT22;4151;51.110;7.020;2022-12-26T03:19:35;11.00;99.90
8220;DHT22;4151;51.110;7.020;2022-12-26T03:22:02;11.00;99.90
8220;DHT22;4151;51.110;7.020;2022-12-26T03:24:48;10.90;99.90
8220;DHT22;4151;51.110;7.020;2022-12-26T03:27:33;10.90;99.90
8220;DHT22;4151;51.110;7.020;2022-12-26T03:29:58;10.80;99.90
8220;DHT22;4151;51.110;7.020;2022-12-26T03:32:43;10.80;99.90
8220;DHT22;4151;51.110;7.020;2022-12-26T03:35:13;10.80;99.90
8220;DHT22;4151;51.110;7.020;2022-12-26T03:40:38;10.80;99.90
8220;DHT22;4151;51.110;7.020;2022-12-26T03:44:47;10.80;99.90
8220;DHT22;4151;51.110;7.020;2022-12-26T03:47:32;10.80;99.90
8220;DHT22;4151;51.110;7.020;2022-12-26T03:56:12;10.70;99.90
8220;DHT22;4151;51.110;7.020;2022-12-26T03:59:09;10.70;99.90
8220;DHT22;4151;51.110;7.020;2022-12-26T04:01:55;10.70;99.90
8220;DHT22;4151;51.110;7.020;2022-12-26T04:04:43;10.70;99.90
8220;DHT22;4151;51.110;7.020;2022-12-26T04:07:34;10.70;99.90
8220;DHT22;4151;51.110;7.020;2022-12-26T04:10:25;10.70;99.90
8220;DHT22;4151;51.110;7.020;2022-12-26T04:13:17;10.60;99.90
8220;DHT22;4151;51.110;7.020;2022-12-26T04:16:36;10.60;99.90
8220;DHT22;4151;51.110;7.020;2022-12-26T04:19:56;10.60;99.90
8220;DHT22;4151;51.110;7.020;2022-12-26T04:22:41;10.60;99.90
8220;DHT22;4151;51.110;7.020;2022-12-26T04:25:30;10.60;99.90
8220;DHT22;4151;51.110;7.020;2022-12-26T04:28:17;10.50;99.90
8220;DHT22;4151;51.110;7.020;2022-12-26T04:31:10;10.50;99.90
8220;DHT22;4151;51.110;7.020;2022-12-26T04:34:00;10.50;99.90
8220;DHT22;4151;51.110;7.020;2022-12-26T04:36:56;10.50;99.90
8220;DHT22;4151;51.110;7.020;2022-12-26T04:39:44;10.50;99.90
8220;DHT22;4151;51.110;7.020;2022-12-26T04:42:31;10.50;99.90
8220;DHT22;4151;51.110;7.020;2022-12-26T04:45:16;10.50;99.90
8220;DHT22;4151;51.110;7.020;2022-12-26T04:47:43;10.40;99.90
8220;DHT22;4151;51.110;7.020;2022-12-26T04:50:28;10.40;99.90
8220;DHT22;4151;51.110;7.020;2022-12-26T04:52:54;10.40;99.90
8220;DHT22;4151;51.110;7.020;2022-12-26T04:55:24;10.40;99.90
8220;DHT22;4151;51.110;7.020;2022-12-26T04:57:50;10.40;99.90
8220;DHT22;4151;51.110;7.020;2022-12-26T05:00:15;10.40;99.90
8220;DHT22;4151;51.110;7.020;2022-12-26T05:02:41;10.40;99.90
8220;DHT22;4151;51.110;7.020;2022-12-26T05:05:25;10.40;99.90
8220;DHT22;4151;51.110;7.020;2022-12-26T05:11:07;10.40;99.90
8220;DHT22;4151;51.110;7.020;2022-12-26T05:13:32;10.50;99.90
8220;DHT22;4151;51.110;7.020;2022-12-26T05:15:58;10.40;99.90
8220;DHT22;4151;51.110;7.020;2022-12-26T05:18:42;10.50;99.90
8220;DHT22;4151;51.110;7.020;2022-12-26T05:21:26;10.40;99.90
8220;DHT22;4151;51.110;7.020;2022-12-26T05:24:11;10.40;99.90
8220;DHT22;4151;51.110;7.020;2022-12-26T05:26:55;10.40;99.90
8220;DHT22;4151;51.110;7.020;2022-12-26T05:29:39;10.40;99.90
8220;DHT22;4151;51.110;7.020;2022-12-26T05:32:04;10.40;99.90
8220;DHT22;4151;51.110;7.020;2022-12-26T05:34:30;10.40;99.90
8220;DHT22;4151;51.110;7.020;2022-12-26T05:36:57;10.40;99.90
8220;DHT22;4151;51.110;7.020;2022-12-26T05:39:24;10.40;99.90
8220;DHT22;4151;51.110;7.020;2022-12-26T05:41:49;10.30;99.90
8220;DHT22;4151;51.110;7.020;2022-12-26T05:44:15;10.30;99.90
8220;DHT22;4151;51.110;7.020;2022-12-26T05:46:41;10.30;99.90
8220;DHT22;4151;51.110;7.020;2022-12-26T05:49:07;10.30;99.90
8220;DHT22;4151;51.110;7.020;2022-12-26T05:51:34;10.20;99.90
8220;DHT22;4151;51.110;7.020;2022-12-26T05:54:00;10.20;99.90
8220;DHT22;4151;51.110;7.020;2022-12-26T05:56:25;10.20;99.90
8220;DHT22;4151;51.110;7.020;2022-12-26T05:58:55;10.20;99.90
8220;DHT22;4151;51.110;7.020;2022-12-26T06:01:23;10.30;99.90
8220;DHT22;4151;51.110;7.020;2022-12-26T06:03:51;10.20;99.90
8220;DHT22;4151;51.110;7.020;2022-12-26T06:06:17;10.20;99.90
8220;DHT22;4151;51.110;7.020;2022-12-26T06:08:46;10.20;99.90
8220;DHT22;4151;51.110;7.020;2022-12-26T06:11:12;10.20;99.90
8220;DHT22;4151;51.110;7.020;2022-12-26T06:13:39;10.10;99.90
8220;DHT22;4151;51.110;7.020;2022-12-26T06:16:07;10.10;99.90
8220;DHT22;4151;51.110;7.020;2022-12-26T06:18:33;10.10;99.90
8220;DHT22;4151;51.110;7.020;2022-12-26T06:21:03;10.10;99.90
8220;DHT22;4151;51.110;7.020;2022-12-26T06:23:29;10.10;99.90
8220;DHT22;4151;51.110;7.020;2022-12-26T06:25:55;10.00;99.90
8220;DHT22;4151;51.110;7.020;2022-12-26T06:28:22;10.00;99.90
8220;DHT22;4151;51.110;7.020;2022-12-26T06:30:48;10.00;99.90
8220;DHT22;4151;51.110;7.020;2022-12-26T06:33:14;10.00;99.90
8220;DHT22;4151;51.110;7.020;2022-12-26T06:35:40;10.00;99.90
8220;DHT22;4151;51.110;7.020;2022-12-26T06:38:05;10.00;99.90
8220;DHT22;4151;51.110;7.020;2022-12-26T06:40:31;10.00;99.90
8220;DHT22;4151;51.110;7.020;2022-12-26T06:42:56;10.00;99.90
8220;DHT22;4151;51.110;7.020;2022-12-26T06:45:22;10.00;99.90
8220;DHT22;4151;51.110;7.020;2022-12-26T06:47:47;10.00;99.90
8220;DHT22;4151;51.110;7.020;2022-12-26T06:50:13;10.00;99.90
8220;DHT22;4151;51.110;7.020;2022-12-26T06:52:38;10.00;99.90
8220;DHT22;4151;51.110;7.020;2022-12-26T06:55:04;10.00;99.90
8220;DHT22;4151;51.110;7.020;2022-12-26T06:57:30;10.00;99.90
8220;DHT22;4151;51.110;7.020;2022-12-26T06:59:56;10.00;99.90
8220;DHT22;4151;51.110;7.020;2022-12-26T07:02:21;10.00;99.90
8220;DHT22;4151;51.110;7.020;2022-12-26T07:04:47;10.00;99.90
8220;DHT22;4151;51.110;7.020;2022-12-26T07:07:12;10.00;99.90
8220;DHT22;4151;51.110;7.020;2022-12-26T07:09:38;10.00;99.90
8220;DHT22;4151;51.110;7.020;2022-12-26T07:12:03;10.00;99.90
8220;DHT22;4151;51.110;7.020;2022-12-26T07:14:29;10.00;99.90
8220;DHT22;4151;51.110;7.020;2022-12-26T07:16:55;10.00;99.90
8220;DHT22;4151;51.110;7.020;2022-12-26T07:19:20;9.90;99.90
8220;DHT22;4151;51.110;7.020;2022-12-26T07:21:46;9.90;99.90
8220;DHT22;4151;51.110;7.020;2022-12-26T07:24:17;9.90;99.90
8220;DHT22;4151;51.110;7.020;2022-12-26T07:26:44;9.90;99.90
8220;DHT22;4151;51.110;7.020;2022-12-26T07:29:11;9.90;99.90
8220;DHT22;4151;51.110;7.020;2022-12-26T07:31:36;9.90;99.90
8220;DHT22;4151;51.110;7.020;2022-12-26T07:34:02;9.90;99.90
8220;DHT22;4151;51.110;7.020;2022-12-26T07:36:28;9.90;99.90
8220;DHT22;4151;51.110;7.020;2022-12-26T07:38:54;9.80;99.90
8220;DHT22;4151;51.110;7.020;2022-12-26T07:41:20;9.80;99.90
8220;DHT22;4151;51.110;7.020;2022-12-26T07:44:04;9.80;99.90
8220;DHT22;4151;51.110;7.020;2022-12-26T07:46:33;9.80;99.90
8220;DHT22;4151;51.110;7.020;2022-12-26T07:48:58;9.80;99.90
8220;DHT22;4151;51.110;7.020;2022-12-26T07:51:24;9.70;99.90
8220;DHT22;4151;51.110;7.020;2022-12-26T07:53:49;9.70;99.90
8220;DHT22;4151;51.110;7.020;2022-12-26T07:56:15;9.70;99.90
8220;DHT22;4151;51.110;7.020;2022-12-26T07:58:40;9.70;99.90
8220;DHT22;4151;51.110;7.020;2022-12-26T08:01:06;9.70;99.90
8220;DHT22;4151;51.110;7.020;2022-12-26T08:03:33;9.70;99.90
8220;DHT22;4151;51.110;7.020;2022-12-26T08:05:59;9.70;99.90
8220;DHT22;4151;51.110;7.020;2022-12-26T08:08:24;9.70;99.90
8220;DHT22;4151;51.110;7.020;2022-12-26T08:11:14;9.70;99.90
8220;DHT22;4151;51.110;7.020;2022-12-26T08:13:40;9.60;99.90
8220;DHT22;4151;51.110;7.020;2022-12-26T08:16:07;9.60;99.90
8220;DHT22;4151;51.110;7.020;2022-12-26T08:18:33;9.60;99.90
8220;DHT22;4151;51.110;7.020;2022-12-26T08:20:59;9.70;99.90
8220;DHT22;4151;51.110;7.020;2022-12-26T08:23:25;9.70;99.90
8220;DHT22;4151;51.110;7.020;2022-12-26T08:25:51;9.70;99.90
8220;DHT22;4151;51.110;7.020;2022-12-26T08:28:16;9.70;99.90
8220;DHT22;4151;51.110;7.020;2022-12-26T08:30:42;9.70;99.90
8220;DHT22;4151;51.110;7.020;2022-12-26T08:33:10;9.70;99.90
8220;DHT22;4151;51.110;7.020;2022-12-26T08:35:36;9.70;99.90
8220;DHT22;4151;51.110;7.020;2022-12-26T08:38:03;9.80;99.90
8220;DHT22;4151;51.110;7.020;2022-12-26T08:40:29;9.80;99.90
8220;DHT22;4151;51.110;7.020;2022-12-26T08:42:55;9.80;99.90
8220;DHT22;4151;51.110;7.020;2022-12-26T08:45:21;9.80;99.90
8220;DHT22;4151;51.110;7.020;2022-12-26T08:47:46;9.80;99.90
8220;DHT22;4151;51.110;7.020;2022-12-26T08:50:12;9.90;99.90
8220;DHT22;4151;51.110;7.020;2022-12-26T08:52:38;9.90;99.90
8220;DHT22;4151;51.110;7.020;2022-12-26T08:55:04;9.90;99.90
8220;DHT22;4151;51.110;7.020;2022-12-26T08:57:30;10.00;99.90
8220;DHT22;4151;51.110;7.020;2022-12-26T08:59:55;10.00;99.90
8220;DHT22;4151;51.110;7.020;2022-12-26T09:02:21;10.10;99.90
8220;DHT22;4151;51.110;7.020;2022-12-26T09:04:47;10.10;99.90
8220;DHT22;4151;51.110;7.020;2022-12-26T09:07:12;10.10;99.90
8220;DHT22;4151;51.110;7.020;2022-12-26T09:09:38;10.20;99.90
8220;DHT22;4151;51.110;7.020;2022-12-26T09:12:04;10.20;99.90
8220;DHT22;4151;51.110;7.020;2022-12-26T09:14:29;10.20;99.90
8220;DHT22;4151;51.110;7.020;2022-12-26T09:29:53;10.40;99.90
8220;DHT22;4151;51.110;7.020;2022-12-26T09:32:19;10.40;99.90
8220;DHT22;4151;51.110;7.020;2022-12-26T09:34:44;10.40;99.90
8220;DHT22;4151;51.110;7.020;2022-12-26T09:37:12;10.50;99.90
8220;DHT22;4151;51.110;7.020;2022-12-26T09:39:38;10.50;99.90
8220;DHT22;4151;51.110;7.020;2022-12-26T09:44:53;10.50;99.90
8220;DHT22;4151;51.110;7.020;2022-12-26T09:50:05;10.50;99.90
8220;DHT22;4151;51.110;7.020;2022-12-26T09:55:15;10.60;99.90
8220;DHT22;4151;51.110;7.020;2022-12-26T09:57:46;10.60;99.90
8220;DHT22;4151;51.110;7.020;2022-12-26T10:00:20;10.60;99.90
8220;DHT22;4151;51.110;7.020;2022-12-26T10:02:50;10.60;99.90
8220;DHT22;4151;51.110;7.020;2022-12-26T10:05:16;10.60;99.90
8220;DHT22;4151;51.110;7.020;2022-12-26T10:08:00;10.70;99.90
8220;DHT22;4151;51.110;7.020;2022-12-26T10:13:11;10.70;99.90
8220;DHT22;4151;51.110;7.020;2022-12-26T10:15:58;10.70;99.90
8220;DHT22;4151;51.110;7.020;2022-12-26T10:18:45;10.70;99.90
8220;DHT22;4151;51.110;7.020;2022-12-26T10:21:39;10.80;99.90
8220;DHT22;4151;51.110;7.020;2022-12-26T10:24:13;10.80;99.90
8220;DHT22;4151;51.110;7.020;2022-12-26T10:26:44;10.80;99.90
8220;DHT22;4151;51.110;7.020;2022-12-26T10:29:26;10.80;99.90
8220;DHT22;4151;51.110;7.020;2022-12-26T10:32:05;10.80;99.90
8220;DHT22;4151;51.110;7.020;2022-12-26T10:34:41;10.90;99.90
8220;DHT22;4151;51.110;7.020;2022-12-26T10:37:34;10.90;99.90
8220;DHT22;4151;51.110;7.020;2022-12-26T10:40:23;10.90;99.90
8220;DHT22;4151;51.110;7.020;2022-12-26T10:42:53;10.90;99.90
8220;DHT22;4151;51.110;7.020;2022-12-26T10:47:45;11.00;99.90
8220;DHT22;4151;51.110;7.020;2022-12-26T10:50:27;11.00;99.90
8220;DHT22;4151;51.110;7.020;2022-12-26T10:52:53;11.10;99.90
8220;DHT22;4151;51.110;7.020;2022-12-26T10:55:30;11.10;99.90
8220;DHT22;4151;51.110;7.020;2022-12-26T10:58:32;11.10;99.90
8220;DHT22;4151;51.110;7.020;2022-12-26T11:00:50;11.10;99.90
8220;DHT22;4151;51.110;7.020;2022-12-26T11:03:18;11.00;99.90
8220;DHT22;4151;51.110;7.020;2022-12-26T11:05:47;11.00;99.90
8220;DHT22;4151;51.110;7.020;2022-12-26T11:08:24;11.00;99.90
8220;DHT22;4151;51.110;7.020;2022-12-26T11:13:39;11.10;99.90
8220;DHT22;4151;51.110;7.020;2022-12-26T11:16:06;11.10;99.90
8220;DHT22;4151;51.110;7.020;2022-12-26T11:18:38;11.10;99.90
8220;DHT22;4151;51.110;7.020;2022-12-26T11:21:22;11.20;99.90
8220;DHT22;4151;51.110;7.020;2022-12-26T11:23:52;11.20;99.90
8220;DHT22;4151;51.110;7.020;2022-12-26T11:26:28;11.20;99.90
8220;DHT22;4151;51.110;7.020;2022-12-26T11:39:39;11.10;99.90
8220;DHT22;4151;51.110;7.020;2022-12-26T11:42:20;11.10;99.90
8220;DHT22;4151;51.110;7.020;2022-12-26T11:44:47;11.10;99.90
8220;DHT22;4151;51.110;7.020;2022-12-26T11:47:21;11.00;99.90
8220;DHT22;4151;51.110;7.020;2022-12-26T11:49:58;11.00;99.90
8220;DHT22;4151;51.110;7.020;2022-12-26T11:52:38;11.10;99.90
8220;DHT22;4151;51.110;7.020;2022-12-26T11:55:36;11.10;99.90
8220;DHT22;4151;51.110;7.020;2022-12-26T12:01:14;11.10;99.90
8220;DHT22;4151;51.110;7.020;2022-12-26T12:03:34;11.20;99.90
8220;DHT22;4151;51.110;7.020;2022-12-26T12:13:01;11.00;99.90
8220;DHT22;4151;51.110;7.020;2022-12-26T12:21:23;11.20;99.90
8220;DHT22;4151;51.110;7.020;2022-12-26T12:32:43;11.30;99.90
8220;DHT22;4151;51.110;7.020;2022-12-26T12:38:04;11.50;99.90
8220;DHT22;4151;51.110;7.020;2022-12-26T12:54:17;11.10;99.90
8220;DHT22;4151;51.110;7.020;2022-12-26T12:57:03;11.10;99.90
8220;DHT22;4151;51.110;7.020;2022-12-26T12:59:50;11.00;99.90
8220;DHT22;4151;51.110;7.020;2022-12-26T13:02:25;10.90;99.90
8220;DHT22;4151;51.110;7.020;2022-12-26T13:05:01;10.80;99.90
8220;DHT22;4151;51.110;7.020;2022-12-26T13:07:34;10.60;99.90
8220;DHT22;4151;51.110;7.020;2022-12-26T13:10:05;10.30;99.90
8220;DHT22;4151;51.110;7.020;2022-12-26T13:12:38;10.20;99.90
8220;DHT22;4151;51.110;7.020;2022-12-26T13:15:07;10.00;99.90
8220;DHT22;4151;51.110;7.020;2022-12-26T13:17:45;9.70;99.90
8220;DHT22;4151;51.110;7.020;2022-12-26T13:20:20;9.50;99.90
8220;DHT22;4151;51.110;7.020;2022-12-26T13:22:54;9.30;99.90
8220;DHT22;4151;51.110;7.020;2022-12-26T13:25:47;9.20;99.90
8220;DHT22;4151;51.110;7.020;2022-12-26T13:28:17;9.00;99.90
8220;DHT22;4151;51.110;7.020;2022-12-26T13:30:52;8.70;99.90
8220;DHT22;4151;51.110;7.020;2022-12-26T13:33:18;8.60;99.90
8220;DHT22;4151;51.110;7.020;2022-12-26T13:35:56;8.60;99.90
8220;DHT22;4151;51.110;7.020;2022-12-26T13:41:15;8.60;99.90
8220;DHT22;4151;51.110;7.020;2022-12-26T13:44:05;8.60;99.90
8220;DHT22;4151;51.110;7.020;2022-12-26T13:46:36;8.60;99.90
8220;DHT22;4151;51.110;7.020;2022-12-26T13:49:02;8.70;99.90
8220;DHT22;4151;51.110;7.020;2022-12-26T13:51:42;8.70;99.90
8220;DHT22;4151;51.110;7.020;2022-12-26T13:54:10;8.70;99.90
8220;DHT22;4151;51.110;7.020;2022-12-26T13:59:25;8.80;99.90
8220;DHT22;4151;51.110;7.020;2022-12-26T14:11:14;8.60;99.90
8220;DHT22;4151;51.110;7.020;2022-12-26T14:14:27;8.50;99.90
8220;DHT22;4151;51.110;7.020;2022-12-26T14:20:17;8.30;99.90
8220;DHT22;4151;51.110;7.020;2022-12-26T14:22:44;8.20;99.90
8220;DHT22;4151;51.110;7.020;2022-12-26T14:31:00;8.00;99.90
8220;DHT22;4151;51.110;7.020;2022-12-26T14:33:53;7.90;99.90
8220;DHT22;4151;51.110;7.020;2022-12-26T14:36:48;7.90;99.90
8220;DHT22;4151;51.110;7.020;2022-12-26T14:39:36;7.90;99.90
8220;DHT22;4151;51.110;7.020;2022-12-26T14:42:16;7.90;99.90
8220;DHT22;4151;51.110;7.020;2022-12-26T14:45:02;7.90;99.90
8220;DHT22;4151;51.110;7.020;2022-12-26T14:48:02;7.80;99.90
8220;DHT22;4151;51.110;7.020;2022-12-26T14:58:42;7.90;99.90
8220;DHT22;4151;51.110;7.020;2022-12-26T15:26:44;7.90;99.90
8220;DHT22;4151;51.110;7.020;2022-12-26T15:32:21;7.90;99.90
8220;DHT22;4151;51.110;7.020;2022-12-26T15:35:04;7.80;99.90
8220;DHT22;4151;51.110;7.020;2022-12-26T15:38:03;7.70;99.90
8220;DHT22;4151;51.110;7.020;2022-12-26T15:46:41;7.50;99.90
8220;DHT22;4151;51.110;7.020;2022-12-26T15:49:16;7.50;99.90
8220;DHT22;4151;51.110;7.020;2022-12-26T15:52:14;7.60;99.90
8220;DHT22;4151;51.110;7.020;2022-12-26T15:55:09;7.60;99.90
8220;DHT22;4151;51.110;7.020;2022-12-26T16:00:10;7.50;99.90
8220;DHT22;4151;51.110;7.020;2022-12-26T16:02:42;7.50;99.90
8220;DHT22;4151;51.110;7.020;2022-12-26T16:05:34;7.50;99.90
8220;DHT22;4151;51.110;7.020;2022-12-26T16:10:46;7.40;99.90
8220;DHT22;4151;51.110;7.020;2022-12-26T16:18:30;7.10;99.90
8220;DHT22;4151;51.110;7.020;2022-12-26T16:21:04;7.10;99.90
8220;DHT22;4151;51.110;7.020;2022-12-26T16:23:50;7.00;99.90
8220;DHT22;4151;51.110;7.020;2022-12-26T16:26:26;7.00;99.90
8220;DHT22;4151;51.110;7.020;2022-12-26T16:28:54;7.00;99.90
8220;DHT22;4151;51.110;7.020;2022-12-26T16:31:24;6.90;99.90
8220;DHT22;4151;51.110;7.020;2022-12-26T16:33:52;6.90;99.90
8220;DHT22;4151;51.110;7.020;2022-12-26T16:36:24;6.90;99.90
8220;DHT22;4151;51.110;7.020;2022-12-26T16:38:50;6.90;99.90
8220;DHT22;4151;51.110;7.020;2022-12-26T16:41:22;6.90;99.90
8220;DHT22;4151;51.110;7.020;2022-12-26T16:43:50;6.90;99.90
8220;DHT22;4151;51.110;7.020;2022-12-26T16:46:16;6.90;99.90
8220;DHT22;4151;51.110;7.020;2022-12-26T16:48:55;6.90;99.90
8220;DHT22;4151;51.110;7.020;2022-12-26T16:56:49;6.80;99.90
8220;DHT22;4151;51.110;7.020;2022-12-26T16:59:20;6.90;99.90
8220;DHT22;4151;51.110;7.020;2022-12-26T17:01:55;6.90;99.90
8220;DHT22;4151;51.110;7.020;2022-12-26T17:04:23;6.90;99.90
8220;DHT22;4151;51.110;7.020;2022-12-26T17:06:59;6.90;99.90
8220;DHT22;4151;51.110;7.020;2022-12-26T17:09:29;6.90;99.90
8220;DHT22;4151;51.110;7.020;2022-12-26T17:11:59;6.80;99.90
8220;DHT22;4151;51.110;7.020;2022-12-26T17:14:31;6.80;99.90
8220;DHT22;4151;51.110;7.020;2022-12-26T17:17:24;6.70;99.90
8220;DHT22;4151;51.110;7.020;2022-12-26T17:19:55;6.60;99.90
8220;DHT22;4151;51.110;7.020;2022-12-26T17:22:33;6.50;99.90
8220;DHT22;4151;51.110;7.020;2022-12-26T17:25:24;6.50;99.90
8220;DHT22;4151;51.110;7.020;2022-12-26T17:30:44;6.20;99.90
8220;DHT22;4151;51.110;7.020;2022-12-26T17:35:48;6.00;99.90
8220;DHT22;4151;51.110;7.020;2022-12-26T17:38:25;6.00;99.90
8220;DHT22;4151;51.110;7.020;2022-12-26T17:40:56;5.90;99.90
8220;DHT22;4151;51.110;7.020;2022-12-26T17:43:34;5.90;99.90
8220;DHT22;4151;51.110;7.020;2022-12-26T17:46:01;6.00;99.90
8220;DHT22;4151;51.110;7.020;2022-12-26T17:48:27;6.00;99.90
8220;DHT22;4151;51.110;7.020;2022-12-26T17:50:55;6.00;99.90
8220;DHT22;4151;51.110;7.020;2022-12-26T17:53:23;5.90;99.90
8220;DHT22;4151;51.110;7.020;2022-12-26T17:55:50;5.90;99.90
8220;DHT22;4151;51.110;7.020;2022-12-26T17:58:16;5.90;99.90
8220;DHT22;4151;51.110;7.020;2022-12-26T18:00:42;5.80;99.90
8220;DHT22;4151;51.110;7.020;2022-12-26T18:03:08;5.80;99.90
8220;DHT22;4151;51.110;7.020;2022-12-26T18:05:35;5.70;99.90
8220;DHT22;4151;51.110;7.020;2022-12-26T18:08:01;5.60;99.90
8220;DHT22;4151;51.110;7.020;2022-12-26T18:10:30;5.60;99.90
8220;DHT22;4151;51.110;7.020;2022-12-26T18:12:57;5.50;99.90
8220;DHT22;4151;51.110;7.020;2022-12-26T18:15:25;5.40;99.90
8220;DHT22;4151;51.110;7.020;2022-12-26T18:17:52;5.30;99.90
8220;DHT22;4151;51.110;7.020;2022-12-26T18:20:20;5.30;99.90
8220;DHT22;4151;51.110;7.020;2022-12-26T18:22:46;5.20;99.90
8220;DHT22;4151;51.110;7.020;2022-12-26T18:25:13;5.10;99.90
8220;DHT22;4151;51.110;7.020;2022-12-26T18:27:39;5.00;99.90
8220;DHT22;4151;51.110;7.020;2022-12-26T18:30:05;5.00;99.90
8220;DHT22;4151;51.110;7.020;2022-12-26T18:32:32;4.90;99.90
8220;DHT22;4151;51.110;7.020;2022-12-26T18:34:58;4.80;99.90
8220;DHT22;4151;51.110;7.020;2022-12-26T18:37:26;4.80;99.90
8220;DHT22;4151;51.110;7.020;2022-12-26T18:39:52;4.80;99.90
8220;DHT22;4151;51.110;7.020;2022-12-26T18:51:19;4.50;99.90
8220;DHT22;4151;51.110;7.020;2022-12-26T18:53:45;4.50;99.90
8220;DHT22;4151;51.110;7.020;2022-12-26T18:56:13;4.50;99.90
8220;DHT22;4151;51.110;7.020;2022-12-26T18:58:39;4.40;99.90
8220;DHT22;4151;51.110;7.020;2022-12-26T19:01:05;4.30;99.90
8220;DHT22;4151;51.110;7.020;2022-12-26T19:03:30;4.30;99.90
8220;DHT22;4151;51.110;7.020;2022-12-26T19:05:56;4.20;99.90
8220;DHT22;4151;51.110;7.020;2022-12-26T19:08:21;4.20;99.90
8220;DHT22;4151;51.110;7.020;2022-12-26T19:10:47;4.10;99.90
8220;DHT22;4151;51.110;7.020;2022-12-26T19:13:14;4.20;99.90
8220;DHT22;4151;51.110;7.020;2022-12-26T19:15:44;4.20;99.90
8220;DHT22;4151;51.110;7.020;2022-12-26T19:18:11;4.10;99.90
8220;DHT22;4151;51.110;7.020;2022-12-26T19:20:37;4.10;99.90
8220;DHT22;4151;51.110;7.020;2022-12-26T19:23:02;4.00;99.90
8220;DHT22;4151;51.110;7.020;2022-12-26T19:25:28;4.10;99.90
8220;DHT22;4151;51.110;7.020;2022-12-26T19:27:54;4.00;99.90
8220;DHT22;4151;51.110;7.020;2022-12-26T19:30:20;4.00;99.90
8220;DHT22;4151;51.110;7.020;2022-12-26T19:32:46;4.00;99.90
8220;DHT22;4151;51.110;7.020;2022-12-26T19:35:13;4.00;99.90
8220;DHT22;4151;51.110;7.020;2022-12-26T19:37:39;3.90;99.90
8220;DHT22;4151;51.110;7.020;2022-12-26T19:40:06;3.90;99.90
8220;DHT22;4151;51.110;7.020;2022-12-26T19:42:31;3.90;99.90
8220;DHT22;4151;51.110;7.020;2022-12-26T19:44:59;3.90;99.90
8220;DHT22;4151;51.110;7.020;2022-12-26T19:47:25;3.80;99.90
8220;DHT22;4151;51.110;7.020;2022-12-26T19:49:51;3.80;99.90
8220;DHT22;4151;51.110;7.020;2022-12-26T19:52:16;3.80;99.90
8220;DHT22;4151;51.110;7.020;2022-12-26T19:54:42;3.90;99.90
8220;DHT22;4151;51.110;7.020;2022-12-26T19:57:08;3.80;99.90
8220;DHT22;4151;51.110;7.020;2022-12-26T19:59:33;3.80;99.90
8220;DHT22;4151;51.110;7.020;2022-12-26T20:01:59;3.90;99.90
8220;DHT22;4151;51.110;7.020;2022-12-26T20:04:25;3.80;99.90
8220;DHT22;4151;51.110;7.020;2022-12-26T20:06:50;3.80;99.90
8220;DHT22;4151;51.110;7.020;2022-12-26T20:09:16;3.90;99.90
8220;DHT22;4151;51.110;7.020;2022-12-26T20:11:44;3.80;99.90